VLVT/VTE METAR and TAF weather

Enter ICAO airport designator
Station Type Date Time Source
VLVT METAR 2021/09/16 11:30 UTC NOAA

VLVT 161130Z 12004KT 7000 BKN016 BKN200 28/26 Q1008 NOSIG


Station Type Date Time Source
VLVT Decoded METAR 2021/09/16 11:30 UTC NOAA

Vientiane, Laos (VLVT) 17-57N 102-34E 171M
Sep 16, 2021 - 07:30 AM EDT / 2021.09.16 1130 UTC
Wind: from the ESE (120 degrees) at 5 MPH (4 KT):0
Visibility: 4 mile(s):0
Sky conditions: mostly cloudy
Temperature: 82 F (28 C)
Dew Point: 78 F (26 C)
Relative Humidity: 88%
Pressure (altimeter): 29.77 in. Hg (1008 hPa)
ob: VLVT 161130Z 12004KT 7000 BKN016 BKN200 28/26 Q1008 NOSIG
cycle: 11

Station Type Date Time Source
VLVT TAF 2021/09/16 12:51 UTC NOAA

TAF TAF VLVT 161100Z 1612/1712 14006KT 8000 SCT016 BKN083
TEMPO 1614/1620 4000 BR SCT016 SCT040 BKN083

Example: see airport list